sensor_id;sensor_type;location;lat;lon;timestamp;P1;durP1;ratioP1;P2;durP2;ratioP2
15356;SDS011;7778;48.792;9.260;2022-11-10T00:01:41;5.90;;;2.40;;
15356;SDS011;7778;48.792;9.260;2022-11-10T00:04:29;3.60;;;1.70;;
15356;SDS011;7778;48.792;9.260;2022-11-10T00:07:15;2.85;;;2.03;;
15356;SDS011;7778;48.792;9.260;2022-11-10T00:10:01;2.33;;;1.55;;
15356;SDS011;7778;48.792;9.260;2022-11-10T00:12:48;2.85;;;1.70;;
15356;SDS011;7778;48.792;9.260;2022-11-10T00:15:35;4.22;;;1.85;;
15356;SDS011;7778;48.792;9.260;2022-11-10T00:18:42;2.05;;;1.83;;
15356;SDS011;7778;48.792;9.260;2022-11-10T00:21:27;3.63;;;1.90;;
15356;SDS011;7778;48.792;9.260;2022-11-10T00:24:13;2.05;;;1.60;;
15356;SDS011;7778;48.792;9.260;2022-11-10T00:26:59;4.63;;;1.98;;
15356;SDS011;7778;48.792;9.260;2022-11-10T00:29:45;1.77;;;1.52;;
15356;SDS011;7778;48.792;9.260;2022-11-10T00:32:30;2.33;;;1.80;;
15356;SDS011;7778;48.792;9.260;2022-11-10T00:35:18;3.60;;;1.73;;
15356;SDS011;7778;48.792;9.260;2022-11-10T00:38:03;2.67;;;1.90;;
15356;SDS011;7778;48.792;9.260;2022-11-10T00:40:49;3.03;;;1.50;;
15356;SDS011;7778;48.792;9.260;2022-11-10T00:43:34;2.63;;;1.75;;
15356;SDS011;7778;48.792;9.260;2022-11-10T00:46:20;3.17;;;1.58;;
15356;SDS011;7778;48.792;9.260;2022-11-10T00:49:06;5.65;;;2.08;;
15356;SDS011;7778;48.792;9.260;2022-11-10T00:51:53;4.32;;;1.85;;
15356;SDS011;7778;48.792;9.260;2022-11-10T00:54:39;3.13;;;1.50;;
15356;SDS011;7778;48.792;9.260;2022-11-10T00:57:25;5.93;;;2.17;;
15356;SDS011;7778;48.792;9.260;2022-11-10T01:00:12;3.22;;;2.00;;
15356;SDS011;7778;48.792;9.260;2022-11-10T01:02:58;1.60;;;1.50;;
15356;SDS011;7778;48.792;9.260;2022-11-10T01:05:46;4.35;;;1.48;;
15356;SDS011;7778;48.792;9.260;2022-11-10T01:08:33;6.15;;;1.70;;
15356;SDS011;7778;48.792;9.260;2022-11-10T01:11:22;3.38;;;1.60;;
15356;SDS011;7778;48.792;9.260;2022-11-10T01:14:10;2.55;;;1.90;;
15356;SDS011;7778;48.792;9.260;2022-11-10T01:16:55;3.17;;;1.52;;
15356;SDS011;7778;48.792;9.260;2022-11-10T01:19:41;4.93;;;1.90;;
15356;SDS011;7778;48.792;9.260;2022-11-10T01:22:26;4.13;;;1.77;;
15356;SDS011;7778;48.792;9.260;2022-11-10T01:25:13;4.57;;;1.80;;
15356;SDS011;7778;48.792;9.260;2022-11-10T01:27:59;3.50;;;1.77;;
15356;SDS011;7778;48.792;9.260;2022-11-10T01:30:44;3.47;;;1.55;;
15356;SDS011;7778;48.792;9.260;2022-11-10T01:33:30;1.80;;;1.45;;
15356;SDS011;7778;48.792;9.260;2022-11-10T01:36:16;4.80;;;1.77;;
15356;SDS011;7778;48.792;9.260;2022-11-10T01:39:01;5.65;;;1.65;;
15356;SDS011;7778;48.792;9.260;2022-11-10T01:41:48;2.72;;;1.20;;
15356;SDS011;7778;48.792;9.260;2022-11-10T01:44:34;2.67;;;1.25;;
15356;SDS011;7778;48.792;9.260;2022-11-10T01:47:19;1.80;;;1.48;;
15356;SDS011;7778;48.792;9.260;2022-11-10T01:50:05;2.63;;;1.40;;
15356;SDS011;7778;48.792;9.260;2022-11-10T01:52:52;1.80;;;1.40;;
15356;SDS011;7778;48.792;9.260;2022-11-10T01:55:42;4.50;;;1.70;;
15356;SDS011;7778;48.792;9.260;2022-11-10T01:58:31;4.50;;;2.25;;
15356;SDS011;7778;48.792;9.260;2022-11-10T02:01:22;2.55;;;1.40;;
15356;SDS011;7778;48.792;9.260;2022-11-10T02:04:10;5.95;;;1.73;;
15356;SDS011;7778;48.792;9.260;2022-11-10T02:07:00;7.93;;;2.15;;
15356;SDS011;7778;48.792;9.260;2022-11-10T02:09:46;4.80;;;2.42;;
15356;SDS011;7778;48.792;9.260;2022-11-10T02:12:31;2.00;;;1.20;;
15356;SDS011;7778;48.792;9.260;2022-11-10T02:15:24;3.53;;;1.67;;
15356;SDS011;7778;48.792;9.260;2022-11-10T02:18:10;1.98;;;1.63;;
15356;SDS011;7778;48.792;9.260;2022-11-10T02:20:57;2.75;;;1.92;;
15356;SDS011;7778;48.792;9.260;2022-11-10T02:23:44;2.70;;;1.55;;
15356;SDS011;7778;48.792;9.260;2022-11-10T02:26:32;5.57;;;1.73;;
15356;SDS011;7778;48.792;9.260;2022-11-10T02:29:20;3.38;;;1.60;;
15356;SDS011;7778;48.792;9.260;2022-11-10T02:32:07;5.15;;;1.55;;
15356;SDS011;7778;48.792;9.260;2022-11-10T02:34:53;9.90;;;2.00;;
15356;SDS011;7778;48.792;9.260;2022-11-10T02:37:39;3.85;;;1.90;;
15356;SDS011;7778;48.792;9.260;2022-11-10T02:40:25;4.00;;;1.65;;
15356;SDS011;7778;48.792;9.260;2022-11-10T02:43:11;5.07;;;2.20;;
15356;SDS011;7778;48.792;9.260;2022-11-10T02:45:58;11.38;;;2.22;;
15356;SDS011;7778;48.792;9.260;2022-11-10T02:48:44;4.85;;;1.65;;
15356;SDS011;7778;48.792;9.260;2022-11-10T02:51:29;3.10;;;1.50;;
15356;SDS011;7778;48.792;9.260;2022-11-10T02:54:16;1.30;;;1.20;;
15356;SDS011;7778;48.792;9.260;2022-11-10T02:57:02;2.90;;;1.80;;
15356;SDS011;7778;48.792;9.260;2022-11-10T02:59:48;2.83;;;1.33;;
15356;SDS011;7778;48.792;9.260;2022-11-10T03:02:33;3.08;;;1.77;;
15356;SDS011;7778;48.792;9.260;2022-11-10T03:05:18;3.05;;;1.65;;
15356;SDS011;7778;48.792;9.260;2022-11-10T03:08:04;3.13;;;1.50;;
15356;SDS011;7778;48.792;9.260;2022-11-10T03:10:52;2.83;;;1.52;;
15356;SDS011;7778;48.792;9.260;2022-11-10T03:13:38;4.13;;;1.45;;
15356;SDS011;7778;48.792;9.260;2022-11-10T03:16:24;2.63;;;1.60;;
15356;SDS011;7778;48.792;9.260;2022-11-10T03:19:09;3.47;;;1.90;;
15356;SDS011;7778;48.792;9.260;2022-11-10T03:21:55;2.10;;;1.50;;
15356;SDS011;7778;48.792;9.260;2022-11-10T03:24:40;6.28;;;2.10;;
15356;SDS011;7778;48.792;9.260;2022-11-10T03:27:27;1.50;;;1.23;;
15356;SDS011;7778;48.792;9.260;2022-11-10T03:30:12;3.05;;;1.90;;
15356;SDS011;7778;48.792;9.260;2022-11-10T03:32:59;5.30;;;1.70;;
15356;SDS011;7778;48.792;9.260;2022-11-10T03:35:45;4.30;;;1.63;;
15356;SDS011;7778;48.792;9.260;2022-11-10T03:38:30;3.78;;;1.83;;
15356;SDS011;7778;48.792;9.260;2022-11-10T03:41:16;3.88;;;1.58;;
15356;SDS011;7778;48.792;9.260;2022-11-10T03:44:03;3.95;;;2.00;;
15356;SDS011;7778;48.792;9.260;2022-11-10T03:46:49;3.95;;;1.42;;
15356;SDS011;7778;48.792;9.260;2022-11-10T03:49:35;3.72;;;1.83;;
15356;SDS011;7778;48.792;9.260;2022-11-10T03:52:20;2.70;;;1.58;;
15356;SDS011;7778;48.792;9.260;2022-11-10T03:55:06;6.35;;;1.70;;
15356;SDS011;7778;48.792;9.260;2022-11-10T03:57:53;5.60;;;1.98;;
15356;SDS011;7778;48.792;9.260;2022-11-10T04:00:39;4.63;;;1.60;;
15356;SDS011;7778;48.792;9.260;2022-11-10T04:03:25;2.47;;;1.55;;
15356;SDS011;7778;48.792;9.260;2022-11-10T04:06:10;5.18;;;1.35;;
15356;SDS011;7778;48.792;9.260;2022-11-10T04:09:14;4.70;;;1.83;;
15356;SDS011;7778;48.792;9.260;2022-11-10T04:11:59;2.78;;;1.92;;
15356;SDS011;7778;48.792;9.260;2022-11-10T04:15:03;9.15;;;2.17;;
15356;SDS011;7778;48.792;9.260;2022-11-10T04:18:09;4.72;;;1.83;;
15356;SDS011;7778;48.792;9.260;2022-11-10T04:21:08;2.50;;;1.70;;
15356;SDS011;7778;48.792;9.260;2022-11-10T04:23:55;3.10;;;2.00;;
15356;SDS011;7778;48.792;9.260;2022-11-10T04:26:41;4.85;;;1.90;;
15356;SDS011;7778;48.792;9.260;2022-11-10T04:29:27;4.30;;;1.92;;
15356;SDS011;7778;48.792;9.260;2022-11-10T04:32:13;7.32;;;1.95;;
15356;SDS011;7778;48.792;9.260;2022-11-10T04:34:59;3.03;;;1.50;;
15356;SDS011;7778;48.792;9.260;2022-11-10T04:37:45;4.47;;;2.45;;
15356;SDS011;7778;48.792;9.260;2022-11-10T04:40:31;3.22;;;1.77;;
15356;SDS011;7778;48.792;9.260;2022-11-10T04:43:16;4.70;;;1.88;;
15356;SDS011;7778;48.792;9.260;2022-11-10T04:46:01;2.03;;;1.80;;
15356;SDS011;7778;48.792;9.260;2022-11-10T04:48:49;4.93;;;1.98;;
15356;SDS011;7778;48.792;9.260;2022-11-10T04:51:37;5.85;;;1.80;;
15356;SDS011;7778;48.792;9.260;2022-11-10T04:54:23;5.88;;;2.10;;
15356;SDS011;7778;48.792;9.260;2022-11-10T04:57:09;3.28;;;1.83;;
15356;SDS011;7778;48.792;9.260;2022-11-10T04:59:55;5.85;;;1.83;;
15356;SDS011;7778;48.792;9.260;2022-11-10T05:02:41;3.45;;;2.00;;
15356;SDS011;7778;48.792;9.260;2022-11-10T05:05:27;2.20;;;1.80;;
15356;SDS011;7778;48.792;9.260;2022-11-10T05:08:14;5.45;;;1.67;;
15356;SDS011;7778;48.792;9.260;2022-11-10T05:10:59;5.28;;;2.20;;
15356;SDS011;7778;48.792;9.260;2022-11-10T05:13:45;6.05;;;2.55;;
15356;SDS011;7778;48.792;9.260;2022-11-10T05:16:30;7.47;;;2.47;;
15356;SDS011;7778;48.792;9.260;2022-11-10T05:19:16;4.95;;;3.13;;
15356;SDS011;7778;48.792;9.260;2022-11-10T05:22:01;3.88;;;2.40;;
15356;SDS011;7778;48.792;9.260;2022-11-10T05:24:50;4.63;;;2.45;;
15356;SDS011;7778;48.792;9.260;2022-11-10T05:27:35;3.88;;;2.65;;
15356;SDS011;7778;48.792;9.260;2022-11-10T05:30:21;4.03;;;2.03;;
15356;SDS011;7778;48.792;9.260;2022-11-10T05:33:06;4.45;;;2.42;;
15356;SDS011;7778;48.792;9.260;2022-11-10T05:35:52;3.05;;;2.10;;
15356;SDS011;7778;48.792;9.260;2022-11-10T05:38:38;4.88;;;2.25;;
15356;SDS011;7778;48.792;9.260;2022-11-10T05:41:24;3.10;;;2.00;;
15356;SDS011;7778;48.792;9.260;2022-11-10T05:44:10;4.18;;;2.50;;
15356;SDS011;7778;48.792;9.260;2022-11-10T05:46:56;6.88;;;3.33;;
15356;SDS011;7778;48.792;9.260;2022-11-10T05:49:41;9.13;;;3.60;;
15356;SDS011;7778;48.792;9.260;2022-11-10T05:52:26;7.50;;;3.03;;
15356;SDS011;7778;48.792;9.260;2022-11-10T05:55:12;5.63;;;3.08;;
15356;SDS011;7778;48.792;9.260;2022-11-10T05:58:01;9.55;;;3.97;;
15356;SDS011;7778;48.792;9.260;2022-11-10T06:00:46;5.30;;;3.05;;
15356;SDS011;7778;48.792;9.260;2022-11-10T06:03:32;4.90;;;2.70;;
15356;SDS011;7778;48.792;9.260;2022-11-10T06:06:17;6.65;;;3.50;;
15356;SDS011;7778;48.792;9.260;2022-11-10T06:09:03;7.55;;;2.72;;
15356;SDS011;7778;48.792;9.260;2022-11-10T06:11:49;8.75;;;2.60;;
15356;SDS011;7778;48.792;9.260;2022-11-10T06:14:36;7.95;;;2.85;;
15356;SDS011;7778;48.792;9.260;2022-11-10T06:17:21;5.93;;;2.70;;
15356;SDS011;7778;48.792;9.260;2022-11-10T06:20:07;5.47;;;2.67;;
15356;SDS011;7778;48.792;9.260;2022-11-10T06:22:57;3.60;;;2.60;;
15356;SDS011;7778;48.792;9.260;2022-11-10T06:25:45;8.52;;;2.88;;
15356;SDS011;7778;48.792;9.260;2022-11-10T06:28:30;3.50;;;2.63;;
15356;SDS011;7778;48.792;9.260;2022-11-10T06:31:17;4.13;;;2.47;;
15356;SDS011;7778;48.792;9.260;2022-11-10T06:34:02;4.75;;;2.85;;
15356;SDS011;7778;48.792;9.260;2022-11-10T06:36:48;10.55;;;3.70;;
15356;SDS011;7778;48.792;9.260;2022-11-10T06:39:33;5.10;;;3.58;;
15356;SDS011;7778;48.792;9.260;2022-11-10T06:42:19;6.38;;;2.75;;
15356;SDS011;7778;48.792;9.260;2022-11-10T06:45:04;5.78;;;2.90;;
15356;SDS011;7778;48.792;9.260;2022-11-10T06:47:58;5.63;;;2.92;;
15356;SDS011;7778;48.792;9.260;2022-11-10T06:50:45;8.52;;;3.03;;
15356;SDS011;7778;48.792;9.260;2022-11-10T06:53:31;9.82;;;3.03;;
15356;SDS011;7778;48.792;9.260;2022-11-10T06:56:16;9.68;;;4.15;;
15356;SDS011;7778;48.792;9.260;2022-11-10T06:59:02;8.27;;;3.85;;
15356;SDS011;7778;48.792;9.260;2022-11-10T07:01:47;7.38;;;3.38;;
15356;SDS011;7778;48.792;9.260;2022-11-10T07:04:34;8.38;;;3.40;;
15356;SDS011;7778;48.792;9.260;2022-11-10T07:07:20;7.68;;;3.65;;
15356;SDS011;7778;48.792;9.260;2022-11-10T07:10:06;6.40;;;2.88;;
15356;SDS011;7778;48.792;9.260;2022-11-10T07:12:55;6.53;;;2.85;;
15356;SDS011;7778;48.792;9.260;2022-11-10T07:15:42;6.03;;;2.88;;
15356;SDS011;7778;48.792;9.260;2022-11-10T07:18:27;6.97;;;3.33;;
15356;SDS011;7778;48.792;9.260;2022-11-10T07:21:14;7.93;;;2.35;;
15356;SDS011;7778;48.792;9.260;2022-11-10T07:24:02;4.30;;;2.22;;
15356;SDS011;7778;48.792;9.260;2022-11-10T07:26:54;5.90;;;2.40;;
15356;SDS011;7778;48.792;9.260;2022-11-10T07:29:40;3.60;;;2.40;;
15356;SDS011;7778;48.792;9.260;2022-11-10T07:32:25;5.78;;;3.03;;
15356;SDS011;7778;48.792;9.260;2022-11-10T07:35:11;4.10;;;2.40;;
15356;SDS011;7778;48.792;9.260;2022-11-10T07:38:00;5.30;;;2.70;;
15356;SDS011;7778;48.792;9.260;2022-11-10T07:40:49;4.18;;;2.33;;
15356;SDS011;7778;48.792;9.260;2022-11-10T07:43:36;6.45;;;2.65;;
15356;SDS011;7778;48.792;9.260;2022-11-10T07:46:21;3.78;;;2.17;;
15356;SDS011;7778;48.792;9.260;2022-11-10T07:49:07;7.75;;;2.38;;
15356;SDS011;7778;48.792;9.260;2022-11-10T07:51:52;3.95;;;2.22;;
15356;SDS011;7778;48.792;9.260;2022-11-10T07:54:39;3.90;;;2.13;;
15356;SDS011;7778;48.792;9.260;2022-11-10T07:57:25;3.28;;;2.35;;
15356;SDS011;7778;48.792;9.260;2022-11-10T08:00:11;4.72;;;2.05;;
15356;SDS011;7778;48.792;9.260;2022-11-10T08:03:02;5.18;;;2.22;;
15356;SDS011;7778;48.792;9.260;2022-11-10T08:05:50;6.60;;;2.00;;
15356;SDS011;7778;48.792;9.260;2022-11-10T08:08:35;4.93;;;1.92;;
15356;SDS011;7778;48.792;9.260;2022-11-10T08:11:22;2.38;;;1.75;;
15356;SDS011;7778;48.792;9.260;2022-11-10T08:14:07;2.05;;;1.30;;
15356;SDS011;7778;48.792;9.260;2022-11-10T08:16:53;5.05;;;1.73;;
15356;SDS011;7778;48.792;9.260;2022-11-10T08:19:38;2.72;;;1.50;;
15356;SDS011;7778;48.792;9.260;2022-11-10T08:22:24;3.35;;;1.98;;
15356;SDS011;7778;48.792;9.260;2022-11-10T08:25:10;3.90;;;1.70;;
15356;SDS011;7778;48.792;9.260;2022-11-10T08:27:57;1.95;;;1.77;;
15356;SDS011;7778;48.792;9.260;2022-11-10T08:30:44;3.35;;;1.77;;
15356;SDS011;7778;48.792;9.260;2022-11-10T08:33:31;4.50;;;2.03;;
15356;SDS011;7778;48.792;9.260;2022-11-10T08:36:16;1.98;;;1.52;;
15356;SDS011;7778;48.792;9.260;2022-11-10T08:39:02;2.65;;;1.55;;
15356;SDS011;7778;48.792;9.260;2022-11-10T08:41:48;3.20;;;1.80;;
15356;SDS011;7778;48.792;9.260;2022-11-10T08:44:34;2.20;;;1.67;;
15356;SDS011;7778;48.792;9.260;2022-11-10T08:47:21;2.33;;;1.70;;
15356;SDS011;7778;48.792;9.260;2022-11-10T08:50:06;4.82;;;1.80;;
15356;SDS011;7778;48.792;9.260;2022-11-10T08:52:53;4.18;;;1.42;;
15356;SDS011;7778;48.792;9.260;2022-11-10T08:55:39;4.13;;;1.33;;
15356;SDS011;7778;48.792;9.260;2022-11-10T08:58:26;3.80;;;1.67;;
15356;SDS011;7778;48.792;9.260;2022-11-10T09:01:13;3.65;;;1.58;;
15356;SDS011;7778;48.792;9.260;2022-11-10T09:03:58;4.03;;;2.47;;
15356;SDS011;7778;48.792;9.260;2022-11-10T09:06:43;7.20;;;2.15;;
15356;SDS011;7778;48.792;9.260;2022-11-10T09:09:29;2.03;;;1.50;;
15356;SDS011;7778;48.792;9.260;2022-11-10T09:12:14;5.03;;;1.83;;
15356;SDS011;7778;48.792;9.260;2022-11-10T09:15:00;4.18;;;1.92;;
15356;SDS011;7778;48.792;9.260;2022-11-10T09:17:47;1.98;;;1.48;;
15356;SDS011;7778;48.792;9.260;2022-11-10T09:20:33;6.00;;;1.75;;
15356;SDS011;7778;48.792;9.260;2022-11-10T09:23:21;2.40;;;1.48;;
15356;SDS011;7778;48.792;9.260;2022-11-10T09:26:07;5.22;;;1.67;;
15356;SDS011;7778;48.792;9.260;2022-11-10T09:28:52;3.45;;;1.58;;
15356;SDS011;7778;48.792;9.260;2022-11-10T09:31:38;4.90;;;2.10;;
15356;SDS011;7778;48.792;9.260;2022-11-10T09:34:25;4.40;;;2.17;;
15356;SDS011;7778;48.792;9.260;2022-11-10T09:37:10;3.95;;;1.85;;
15356;SDS011;7778;48.792;9.260;2022-11-10T09:39:56;3.83;;;1.88;;
15356;SDS011;7778;48.792;9.260;2022-11-10T09:42:42;2.53;;;2.30;;
15356;SDS011;7778;48.792;9.260;2022-11-10T09:45:28;6.10;;;2.70;;
15356;SDS011;7778;48.792;9.260;2022-11-10T09:48:17;2.80;;;1.75;;
15356;SDS011;7778;48.792;9.260;2022-11-10T09:51:10;4.30;;;2.17;;
15356;SDS011;7778;48.792;9.260;2022-11-10T09:54:01;5.90;;;3.00;;
15356;SDS011;7778;48.792;9.260;2022-11-10T09:56:50;6.18;;;2.58;;
15356;SDS011;7778;48.792;9.260;2022-11-10T09:59:39;3.20;;;2.17;;
15356;SDS011;7778;48.792;9.260;2022-11-10T10:02:26;2.70;;;1.90;;
15356;SDS011;7778;48.792;9.260;2022-11-10T10:08:50;2.83;;;1.45;;
15356;SDS011;7778;48.792;9.260;2022-11-10T10:11:47;1.73;;;1.20;;
15356;SDS011;7778;48.792;9.260;2022-11-10T10:14:48;5.25;;;2.05;;
15356;SDS011;7778;48.792;9.260;2022-11-10T10:17:50;7.82;;;2.00;;
15356;SDS011;7778;48.792;9.260;2022-11-10T10:20:51;5.50;;;2.10;;
15356;SDS011;7778;48.792;9.260;2022-11-10T10:23:55;1.50;;;1.40;;
15356;SDS011;7778;48.792;9.260;2022-11-10T10:26:44;3.60;;;2.10;;
15356;SDS011;7778;48.792;9.260;2022-11-10T10:29:36;2.55;;;1.23;;
15356;SDS011;7778;48.792;9.260;2022-11-10T10:32:25;1.90;;;1.33;;
15356;SDS011;7778;48.792;9.260;2022-11-10T10:35:12;2.10;;;1.20;;
15356;SDS011;7778;48.792;9.260;2022-11-10T10:37:59;1.70;;;0.95;;
15356;SDS011;7778;48.792;9.260;2022-11-10T10:40:48;4.72;;;1.60;;
15356;SDS011;7778;48.792;9.260;2022-11-10T10:43:36;2.15;;;1.38;;
15356;SDS011;7778;48.792;9.260;2022-11-10T10:46:24;8.07;;;1.60;;
15356;SDS011;7778;48.792;9.260;2022-11-10T10:49:13;5.93;;;1.38;;
15356;SDS011;7778;48.792;9.260;2022-11-10T10:52:04;2.65;;;1.00;;
15356;SDS011;7778;48.792;9.260;2022-11-10T10:54:58;1.70;;;1.15;;
15356;SDS011;7778;48.792;9.260;2022-11-10T10:57:50;4.95;;;1.20;;
15356;SDS011;7778;48.792;9.260;2022-11-10T11:00:42;0.93;;;0.65;;
15356;SDS011;7778;48.792;9.260;2022-11-10T11:03:36;3.60;;;1.10;;
15356;SDS011;7778;48.792;9.260;2022-11-10T11:06:25;3.50;;;1.30;;
15356;SDS011;7778;48.792;9.260;2022-11-10T11:09:15;0.65;;;0.63;;
15356;SDS011;7778;48.792;9.260;2022-11-10T11:12:04;3.47;;;1.33;;
15356;SDS011;7778;48.792;9.260;2022-11-10T11:14:53;1.10;;;0.80;;
15356;SDS011;7778;48.792;9.260;2022-11-10T11:17:58;2.83;;;1.23;;
15356;SDS011;7778;48.792;9.260;2022-11-10T11:20:47;5.95;;;1.55;;
15356;SDS011;7778;48.792;9.260;2022-11-10T11:24:02;1.27;;;0.68;;
15356;SDS011;7778;48.792;9.260;2022-11-10T11:27:02;5.22;;;1.95;;
15356;SDS011;7778;48.792;9.260;2022-11-10T11:30:02;1.33;;;0.88;;
15356;SDS011;7778;48.792;9.260;2022-11-10T11:33:05;1.60;;;0.70;;
15356;SDS011;7778;48.792;9.260;2022-11-10T11:36:01;1.42;;;1.10;;
15356;SDS011;7778;48.792;9.260;2022-11-10T11:38:57;8.00;;;3.83;;
15356;SDS011;7778;48.792;9.260;2022-11-10T11:41:53;6.00;;;1.67;;
15356;SDS011;7778;48.792;9.260;2022-11-10T11:44:49;4.53;;;2.00;;
15356;SDS011;7778;48.792;9.260;2022-11-10T11:48:01;1.30;;;1.10;;
15356;SDS011;7778;48.792;9.260;2022-11-10T11:51:10;1.35;;;0.77;;
15356;SDS011;7778;48.792;9.260;2022-11-10T11:54:12;1.48;;;0.93;;
15356;SDS011;7778;48.792;9.260;2022-11-10T11:57:30;4.70;;;1.40;;
15356;SDS011;7778;48.792;9.260;2022-11-10T12:00:33;1.52;;;0.90;;
15356;SDS011;7778;48.792;9.260;2022-11-10T12:03:28;3.22;;;0.98;;
15356;SDS011;7778;48.792;9.260;2022-11-10T12:06:49;4.13;;;0.90;;
15356;SDS011;7778;48.792;9.260;2022-11-10T12:09:46;2.25;;;0.80;;
15356;SDS011;7778;48.792;9.260;2022-11-10T12:15:52;0.88;;;0.40;;
15356;SDS011;7778;48.792;9.260;2022-11-10T12:18:44;3.30;;;0.90;;
15356;SDS011;7778;48.792;9.260;2022-11-10T12:21:38;4.60;;;1.35;;
15356;SDS011;7778;48.792;9.260;2022-11-10T12:24:36;2.53;;;1.00;;
15356;SDS011;7778;48.792;9.260;2022-11-10T12:27:41;4.90;;;1.65;;
15356;SDS011;7778;48.792;9.260;2022-11-10T12:30:30;0.70;;;0.70;;
15356;SDS011;7778;48.792;9.260;2022-11-10T12:33:28;0.55;;;0.55;;
15356;SDS011;7778;48.792;9.260;2022-11-10T12:36:20;3.00;;;0.93;;
15356;SDS011;7778;48.792;9.260;2022-11-10T12:39:10;0.57;;;0.57;;
15356;SDS011;7778;48.792;9.260;2022-11-10T12:42:03;3.70;;;0.98;;
15356;SDS011;7778;48.792;9.260;2022-11-10T12:44:57;5.05;;;0.82;;
15356;SDS011;7778;48.792;9.260;2022-11-10T12:47:45;1.38;;;0.80;;
15356;SDS011;7778;48.792;9.260;2022-11-10T12:50:37;1.15;;;0.90;;
15356;SDS011;7778;48.792;9.260;2022-11-10T12:53:32;0.80;;;0.80;;
15356;SDS011;7778;48.792;9.260;2022-11-10T12:56:23;3.63;;;0.98;;
15356;SDS011;7778;48.792;9.260;2022-11-10T12:59:24;2.78;;;0.90;;
15356;SDS011;7778;48.792;9.260;2022-11-10T13:02:16;1.02;;;0.57;;
15356;SDS011;7778;48.792;9.260;2022-11-10T13:05:23;1.55;;;0.70;;
15356;SDS011;7778;48.792;9.260;2022-11-10T13:08:17;2.80;;;1.30;;
15356;SDS011;7778;48.792;9.260;2022-11-10T13:11:20;1.27;;;0.93;;
15356;SDS011;7778;48.792;9.260;2022-11-10T13:14:19;2.00;;;0.82;;
15356;SDS011;7778;48.792;9.260;2022-11-10T13:17:08;1.17;;;0.52;;
15356;SDS011;7778;48.792;9.260;2022-11-10T13:27:09;5.15;;;0.70;;
15356;SDS011;7778;48.792;9.260;2022-11-10T13:29:56;7.07;;;1.25;;
15356;SDS011;7778;48.792;9.260;2022-11-10T13:32:42;0.70;;;0.68;;
15356;SDS011;7778;48.792;9.260;2022-11-10T13:35:48;0.98;;;0.50;;
15356;SDS011;7778;48.792;9.260;2022-11-10T13:38:37;2.50;;;0.95;;
15356;SDS011;7778;48.792;9.260;2022-11-10T13:41:26;1.92;;;0.65;;
15356;SDS011;7778;48.792;9.260;2022-11-10T13:44:18;6.80;;;1.20;;
15356;SDS011;7778;48.792;9.260;2022-11-10T13:47:12;3.22;;;0.73;;
15356;SDS011;7778;48.792;9.260;2022-11-10T13:50:29;3.50;;;0.90;;
15356;SDS011;7778;48.792;9.260;2022-11-10T13:53:29;0.52;;;0.45;;
15356;SDS011;7778;48.792;9.260;2022-11-10T13:56:36;1.08;;;0.73;;
15356;SDS011;7778;48.792;9.260;2022-11-10T13:59:45;1.77;;;1.08;;
15356;SDS011;7778;48.792;9.260;2022-11-10T14:02:43;1.08;;;0.70;;
15356;SDS011;7778;48.792;9.260;2022-11-10T14:08:55;2.08;;;0.73;;
15356;SDS011;7778;48.792;9.260;2022-11-10T14:11:49;0.35;;;0.32;;
15356;SDS011;7778;48.792;9.260;2022-11-10T14:14:45;2.03;;;0.70;;
15356;SDS011;7778;48.792;9.260;2022-11-10T14:17:39;2.35;;;0.75;;
15356;SDS011;7778;48.792;9.260;2022-11-10T14:20:33;1.95;;;0.80;;
15356;SDS011;7778;48.792;9.260;2022-11-10T14:23:30;1.08;;;0.68;;
15356;SDS011;7778;48.792;9.260;2022-11-10T14:26:22;2.50;;;0.65;;
15356;SDS011;7778;48.792;9.260;2022-11-10T14:29:24;1.33;;;0.40;;
15356;SDS011;7778;48.792;9.260;2022-11-10T14:32:14;1.38;;;0.35;;
15356;SDS011;7778;48.792;9.260;2022-11-10T14:35:03;2.20;;;0.77;;
15356;SDS011;7778;48.792;9.260;2022-11-10T14:37:50;0.65;;;0.65;;
15356;SDS011;7778;48.792;9.260;2022-11-10T14:40:39;2.83;;;0.95;;
15356;SDS011;7778;48.792;9.260;2022-11-10T14:43:26;1.90;;;0.50;;
15356;SDS011;7778;48.792;9.260;2022-11-10T14:46:15;1.27;;;0.75;;
15356;SDS011;7778;48.792;9.260;2022-11-10T14:49:08;0.38;;;0.32;;
15356;SDS011;7778;48.792;9.260;2022-11-10T14:51:56;2.42;;;0.60;;
15356;SDS011;7778;48.792;9.260;2022-11-10T14:54:44;2.15;;;1.25;;
15356;SDS011;7778;48.792;9.260;2022-11-10T14:57:30;6.80;;;2.67;;
15356;SDS011;7778;48.792;9.260;2022-11-10T15:00:17;7.45;;;1.02;;
15356;SDS011;7778;48.792;9.260;2022-11-10T15:03:10;2.30;;;0.82;;
15356;SDS011;7778;48.792;9.260;2022-11-10T15:06:01;2.80;;;0.68;;
15356;SDS011;7778;48.792;9.260;2022-11-10T15:08:50;2.30;;;0.80;;
15356;SDS011;7778;48.792;9.260;2022-11-10T15:11:37;1.30;;;0.80;;
15356;SDS011;7778;48.792;9.260;2022-11-10T15:14:31;1.58;;;1.15;;
15356;SDS011;7778;48.792;9.260;2022-11-10T15:20:31;2.53;;;1.23;;
15356;SDS011;7778;48.792;9.260;2022-11-10T15:23:21;3.22;;;1.00;;
15356;SDS011;7778;48.792;9.260;2022-11-10T15:26:16;0.93;;;0.50;;
15356;SDS011;7778;48.792;9.260;2022-11-10T15:29:06;3.10;;;0.70;;
15356;SDS011;7778;48.792;9.260;2022-11-10T15:32:03;2.45;;;1.00;;
15356;SDS011;7778;48.792;9.260;2022-11-10T15:35:06;4.45;;;1.13;;
15356;SDS011;7778;48.792;9.260;2022-11-10T15:37:59;2.35;;;0.98;;
15356;SDS011;7778;48.792;9.260;2022-11-10T15:40:47;2.15;;;0.95;;
15356;SDS011;7778;48.792;9.260;2022-11-10T15:43:34;9.15;;;1.23;;
15356;SDS011;7778;48.792;9.260;2022-11-10T15:46:20;1.92;;;0.88;;
15356;SDS011;7778;48.792;9.260;2022-11-10T15:49:10;6.45;;;1.00;;
15356;SDS011;7778;48.792;9.260;2022-11-10T15:52:04;0.98;;;0.60;;
15356;SDS011;7778;48.792;9.260;2022-11-10T15:54:58;3.22;;;0.95;;
15356;SDS011;7778;48.792;9.260;2022-11-10T15:57:43;1.75;;;0.77;;
15356;SDS011;7778;48.792;9.260;2022-11-10T16:00:29;1.00;;;0.93;;
15356;SDS011;7778;48.792;9.260;2022-11-10T16:03:15;1.70;;;0.85;;
15356;SDS011;7778;48.792;9.260;2022-11-10T16:06:03;3.83;;;1.00;;
15356;SDS011;7778;48.792;9.260;2022-11-10T16:08:49;1.45;;;0.88;;
15356;SDS011;7778;48.792;9.260;2022-11-10T16:11:36;1.30;;;0.75;;
15356;SDS011;7778;48.792;9.260;2022-11-10T16:14:24;3.33;;;1.05;;
15356;SDS011;7778;48.792;9.260;2022-11-10T16:17:10;2.05;;;0.98;;
15356;SDS011;7778;48.792;9.260;2022-11-10T16:19:57;4.20;;;1.20;;
15356;SDS011;7778;48.792;9.260;2022-11-10T16:22:42;3.83;;;1.45;;
15356;SDS011;7778;48.792;9.260;2022-11-10T16:25:28;4.60;;;1.40;;
15356;SDS011;7778;48.792;9.260;2022-11-10T16:28:16;2.00;;;1.13;;
15356;SDS011;7778;48.792;9.260;2022-11-10T16:31:07;3.15;;;1.33;;
15356;SDS011;7778;48.792;9.260;2022-11-10T16:33:54;3.70;;;1.58;;
15356;SDS011;7778;48.792;9.260;2022-11-10T16:36:40;2.42;;;1.20;;
15356;SDS011;7778;48.792;9.260;2022-11-10T16:39:28;2.45;;;1.02;;
15356;SDS011;7778;48.792;9.260;2022-11-10T16:42:14;4.82;;;1.40;;
15356;SDS011;7778;48.792;9.260;2022-11-10T16:45:01;3.25;;;0.93;;
15356;SDS011;7778;48.792;9.260;2022-11-10T16:47:47;2.65;;;1.35;;
15356;SDS011;7778;48.792;9.260;2022-11-10T16:50:35;5.10;;;1.63;;
15356;SDS011;7778;48.792;9.260;2022-11-10T16:53:22;8.82;;;2.13;;
15356;SDS011;7778;48.792;9.260;2022-11-10T16:56:11;6.78;;;2.55;;
15356;SDS011;7778;48.792;9.260;2022-11-10T16:58:58;4.93;;;2.90;;
15356;SDS011;7778;48.792;9.260;2022-11-10T17:01:46;6.38;;;3.20;;
15356;SDS011;7778;48.792;9.260;2022-11-10T17:04:32;16.10;;;5.65;;
15356;SDS011;7778;48.792;9.260;2022-11-10T17:07:21;15.10;;;6.55;;
15356;SDS011;7778;48.792;9.260;2022-11-10T17:10:12;6.75;;;4.10;;
15356;SDS011;7778;48.792;9.260;2022-11-10T17:12:58;12.30;;;5.50;;
15356;SDS011;7778;48.792;9.260;2022-11-10T17:15:44;12.10;;;4.47;;
15356;SDS011;7778;48.792;9.260;2022-11-10T17:18:32;10.35;;;3.28;;
15356;SDS011;7778;48.792;9.260;2022-11-10T17:21:19;15.35;;;3.75;;
15356;SDS011;7778;48.792;9.260;2022-11-10T17:24:06;9.35;;;3.33;;
15356;SDS011;7778;48.792;9.260;2022-11-10T17:26:56;8.88;;;3.72;;
15356;SDS011;7778;48.792;9.260;2022-11-10T17:29:42;12.18;;;5.57;;
15356;SDS011;7778;48.792;9.260;2022-11-10T17:32:28;10.68;;;5.57;;
15356;SDS011;7778;48.792;9.260;2022-11-10T17:35:14;12.57;;;5.53;;